sensor_id;sensor_type;location;lat;lon;timestamp;pressure;altitude;pressure_sealevel;temperature
70389;BMP280;58659;49.050;8.530;2023-06-22T00:01:51;99684.28;;;20.94
70389;BMP280;58659;49.050;8.530;2023-06-22T00:04:17;99696.72;;;20.98
70389;BMP280;58659;49.050;8.530;2023-06-22T00:06:42;99669.72;;;20.99
70389;BMP280;58659;49.050;8.530;2023-06-22T00:09:07;99683.66;;;20.90
70389;BMP280;58659;49.050;8.530;2023-06-22T00:11:33;99675.91;;;20.83
70389;BMP280;58659;49.050;8.530;2023-06-22T00:13:58;99630.16;;;20.79
70389;BMP280;58659;49.050;8.530;2023-06-22T00:16:23;99624.44;;;20.68
70389;BMP280;58659;49.050;8.530;2023-06-22T00:18:48;99613.88;;;20.65
70389;BMP280;58659;49.050;8.530;2023-06-22T00:21:14;99638.97;;;20.64
70389;BMP280;58659;49.050;8.530;2023-06-22T00:23:39;99643.00;;;20.68
70389;BMP280;58659;49.050;8.530;2023-06-22T00:26:04;99639.50;;;20.71
70389;BMP280;58659;49.050;8.530;2023-06-22T00:28:29;99664.88;;;20.72
70389;BMP280;58659;49.050;8.530;2023-06-22T00:30:55;99709.38;;;20.68
70389;BMP280;58659;49.050;8.530;2023-06-22T00:33:20;99789.94;;;20.62
70389;BMP280;58659;49.050;8.530;2023-06-22T00:35:45;99858.97;;;20.62
70389;BMP280;58659;49.050;8.530;2023-06-22T00:38:11;99891.44;;;20.66
70389;BMP280;58659;49.050;8.530;2023-06-22T00:40:36;99836.25;;;20.73
70389;BMP280;58659;49.050;8.530;2023-06-22T00:43:01;99705.13;;;20.83
70389;BMP280;58659;49.050;8.530;2023-06-22T00:45:27;99440.09;;;20.57
70389;BMP280;58659;49.050;8.530;2023-06-22T00:47:55;99395.41;;;20.21
70389;BMP280;58659;49.050;8.530;2023-06-22T00:50:22;99368.19;;;20.08
70389;BMP280;58659;49.050;8.530;2023-06-22T00:52:51;99355.69;;;19.96
70389;BMP280;58659;49.050;8.530;2023-06-22T00:55:18;99298.22;;;19.93
70389;BMP280;58659;49.050;8.530;2023-06-22T00:57:47;99258.66;;;19.86
70389;BMP280;58659;49.050;8.530;2023-06-22T01:00:14;99244.03;;;19.81
70389;BMP280;58659;49.050;8.530;2023-06-22T01:02:41;99220.88;;;19.73
70389;BMP280;58659;49.050;8.530;2023-06-22T01:05:09;99227.78;;;19.70
70389;BMP280;58659;49.050;8.530;2023-06-22T01:07:35;99216.84;;;19.68
70389;BMP280;58659;49.050;8.530;2023-06-22T01:12:32;99194.09;;;19.58
70389;BMP280;58659;49.050;8.530;2023-06-22T01:15:05;99189.34;;;19.53
70389;BMP280;58659;49.050;8.530;2023-06-22T01:17:32;99154.56;;;19.51
70389;BMP280;58659;49.050;8.530;2023-06-22T01:19:58;99144.09;;;19.47
70389;BMP280;58659;49.050;8.530;2023-06-22T01:22:27;99121.56;;;19.43
70389;BMP280;58659;49.050;8.530;2023-06-22T01:25:13;99135.81;;;19.45
70389;BMP280;58659;49.050;8.530;2023-06-22T01:30:29;99131.50;;;19.39
70389;BMP280;58659;49.050;8.530;2023-06-22T01:32:55;99119.31;;;19.41
70389;BMP280;58659;49.050;8.530;2023-06-22T01:35:20;99115.59;;;19.39
70389;BMP280;58659;49.050;8.530;2023-06-22T01:37:46;99115.59;;;19.39
70389;BMP280;58659;49.050;8.530;2023-06-22T01:40:12;99120.44;;;19.31
70389;BMP280;58659;49.050;8.530;2023-06-22T01:42:37;99116.19;;;19.21
70389;BMP280;58659;49.050;8.530;2023-06-22T01:45:03;99113.97;;;19.20
70389;BMP280;58659;49.050;8.530;2023-06-22T01:47:29;99106.66;;;19.11
70389;BMP280;58659;49.050;8.530;2023-06-22T01:49:54;99088.88;;;19.12
70389;BMP280;58659;49.050;8.530;2023-06-22T01:52:20;99069.59;;;19.11
70389;BMP280;58659;49.050;8.530;2023-06-22T01:54:48;99064.31;;;19.11
70389;BMP280;58659;49.050;8.530;2023-06-22T01:57:13;99049.38;;;19.17
70389;BMP280;58659;49.050;8.530;2023-06-22T02:02:22;99059.97;;;19.17
70389;BMP280;58659;49.050;8.530;2023-06-22T02:07:19;99058.47;;;19.16
70389;BMP280;58659;49.050;8.530;2023-06-22T02:09:46;99066.41;;;19.16
70389;BMP280;58659;49.050;8.530;2023-06-22T02:12:13;99055.22;;;19.12
70389;BMP280;58659;49.050;8.530;2023-06-22T02:14:41;99056.06;;;19.09
70389;BMP280;58659;49.050;8.530;2023-06-22T02:17:07;99058.72;;;19.09
70389;BMP280;58659;49.050;8.530;2023-06-22T02:19:36;99087.22;;;19.05
70389;BMP280;58659;49.050;8.530;2023-06-22T02:22:02;99100.00;;;19.07
70389;BMP280;58659;49.050;8.530;2023-06-22T02:24:27;99115.78;;;19.10
70389;BMP280;58659;49.050;8.530;2023-06-22T02:26:55;99122.25;;;19.09
70389;BMP280;58659;49.050;8.530;2023-06-22T02:29:22;99128.72;;;19.08
70389;BMP280;58659;49.050;8.530;2023-06-22T02:31:47;99119.38;;;19.04
70389;BMP280;58659;49.050;8.530;2023-06-22T02:34:12;99114.63;;;18.98
70389;BMP280;58659;49.050;8.530;2023-06-22T02:36:42;99116.66;;;18.94
70389;BMP280;58659;49.050;8.530;2023-06-22T02:39:23;99106.47;;;18.93
70389;BMP280;58659;49.050;8.530;2023-06-22T02:41:52;99088.84;;;18.90
70389;BMP280;58659;49.050;8.530;2023-06-22T02:44:17;99072.63;;;18.88
70389;BMP280;58659;49.050;8.530;2023-06-22T02:46:43;99082.47;;;18.87
70389;BMP280;58659;49.050;8.530;2023-06-22T02:49:09;99071.56;;;18.85
70389;BMP280;58659;49.050;8.530;2023-06-22T02:51:34;99067.13;;;18.82
70389;BMP280;58659;49.050;8.530;2023-06-22T02:53:59;99059.28;;;18.79
70389;BMP280;58659;49.050;8.530;2023-06-22T02:56:25;99062.66;;;18.79
70389;BMP280;58659;49.050;8.530;2023-06-22T02:58:51;99057.16;;;18.74
70389;BMP280;58659;49.050;8.530;2023-06-22T03:01:16;99050.41;;;18.73
70389;BMP280;58659;49.050;8.530;2023-06-22T03:03:41;99045.13;;;18.73
70389;BMP280;58659;49.050;8.530;2023-06-22T03:06:07;99041.28;;;18.74
70389;BMP280;58659;49.050;8.530;2023-06-22T03:08:32;99054.97;;;18.72
70389;BMP280;58659;49.050;8.530;2023-06-22T03:10:57;99038.47;;;18.68
70389;BMP280;58659;49.050;8.530;2023-06-22T03:13:23;99047.44;;;18.71
70389;BMP280;58659;49.050;8.530;2023-06-22T03:15:49;99053.91;;;18.70
70389;BMP280;58659;49.050;8.530;2023-06-22T03:18:14;99055.69;;;18.73
70389;BMP280;58659;49.050;8.530;2023-06-22T03:20:40;99058.88;;;18.68
70389;BMP280;58659;49.050;8.530;2023-06-22T03:23:06;99064.69;;;18.63
70389;BMP280;58659;49.050;8.530;2023-06-22T03:25:31;99057.50;;;18.63
70389;BMP280;58659;49.050;8.530;2023-06-22T03:27:56;99066.72;;;18.59
70389;BMP280;58659;49.050;8.530;2023-06-22T03:30:21;99050.84;;;18.59
70389;BMP280;58659;49.050;8.530;2023-06-22T03:32:46;99055.53;;;18.55
70389;BMP280;58659;49.050;8.530;2023-06-22T03:35:12;99056.16;;;18.59
70389;BMP280;58659;49.050;8.530;2023-06-22T03:37:39;99062.94;;;18.60
70389;BMP280;58659;49.050;8.530;2023-06-22T03:40:04;99069.69;;;18.61
70389;BMP280;58659;49.050;8.530;2023-06-22T03:42:35;99073.16;;;18.58
70389;BMP280;58659;49.050;8.530;2023-06-22T03:45:01;99073.78;;;18.62
70389;BMP280;58659;49.050;8.530;2023-06-22T03:47:26;99087.47;;;18.60
70389;BMP280;58659;49.050;8.530;2023-06-22T03:49:51;99082.16;;;18.60
70389;BMP280;58659;49.050;8.530;2023-06-22T03:52:20;99086.75;;;18.60
70389;BMP280;58659;49.050;8.530;2023-06-22T03:54:45;99086.63;;;18.63
70389;BMP280;58659;49.050;8.530;2023-06-22T03:57:10;99092.97;;;18.66
70389;BMP280;58659;49.050;8.530;2023-06-22T03:59:36;99103.84;;;18.68
70389;BMP280;58659;49.050;8.530;2023-06-22T04:02:01;99112.53;;;18.68
70389;BMP280;58659;49.050;8.530;2023-06-22T04:04:27;99096.34;;;18.66
70389;BMP280;58659;49.050;8.530;2023-06-22T04:06:52;99088.28;;;18.70
70389;BMP280;58659;49.050;8.530;2023-06-22T04:09:18;99089.03;;;18.70
70389;BMP280;58659;49.050;8.530;2023-06-22T04:11:43;99084.81;;;18.73
70389;BMP280;58659;49.050;8.530;2023-06-22T04:14:08;99079.41;;;18.76
70389;BMP280;58659;49.050;8.530;2023-06-22T04:16:33;99075.91;;;18.79
70389;BMP280;58659;49.050;8.530;2023-06-22T04:18:59;99079.72;;;18.78
70389;BMP280;58659;49.050;8.530;2023-06-22T04:21:24;99081.84;;;18.83
70389;BMP280;58659;49.050;8.530;2023-06-22T04:23:49;99071.06;;;18.78
70389;BMP280;58659;49.050;8.530;2023-06-22T04:26:14;99064.91;;;18.81
70389;BMP280;58659;49.050;8.530;2023-06-22T04:28:40;99077.28;;;18.84
70389;BMP280;58659;49.050;8.530;2023-06-22T04:31:06;99079.94;;;18.84
70389;BMP280;58659;49.050;8.530;2023-06-22T04:33:31;99076.84;;;18.85
70389;BMP280;58659;49.050;8.530;2023-06-22T04:35:57;99076.44;;;18.87
70389;BMP280;58659;49.050;8.530;2023-06-22T04:38:23;99078.03;;;18.84
70389;BMP280;58659;49.050;8.530;2023-06-22T04:40:48;99086.81;;;18.94
70389;BMP280;58659;49.050;8.530;2023-06-22T04:43:13;99093.88;;;18.97
70389;BMP280;58659;49.050;8.530;2023-06-22T04:45:38;99089.53;;;19.03
70389;BMP280;58659;49.050;8.530;2023-06-22T04:48:04;99099.09;;;19.01
70389;BMP280;58659;49.050;8.530;2023-06-22T04:50:29;99099.38;;;19.03
70389;BMP280;58659;49.050;8.530;2023-06-22T04:52:55;99102.47;;;19.01
70389;BMP280;58659;49.050;8.530;2023-06-22T04:55:20;99098.13;;;19.07
70389;BMP280;58659;49.050;8.530;2023-06-22T04:57:45;99087.84;;;19.09
70389;BMP280;58659;49.050;8.530;2023-06-22T05:00:14;99080.19;;;19.11
70389;BMP280;58659;49.050;8.530;2023-06-22T05:02:42;99074.69;;;19.18
70389;BMP280;58659;49.050;8.530;2023-06-22T05:05:07;99077.41;;;19.27
70389;BMP280;58659;49.050;8.530;2023-06-22T05:07:36;99070.72;;;19.35
70389;BMP280;58659;49.050;8.530;2023-06-22T05:10:02;99066.94;;;19.45
70389;BMP280;58659;49.050;8.530;2023-06-22T05:12:27;99096.00;;;19.49
70389;BMP280;58659;49.050;8.530;2023-06-22T05:30:27;99149.13;;;20.10
70389;BMP280;58659;49.050;8.530;2023-06-22T05:32:52;99165.69;;;20.23
70389;BMP280;58659;49.050;8.530;2023-06-22T05:35:17;99181.06;;;20.28
70389;BMP280;58659;49.050;8.530;2023-06-22T05:37:43;99204.81;;;20.32
70389;BMP280;58659;49.050;8.530;2023-06-22T05:40:08;99231.94;;;20.36
70389;BMP280;58659;49.050;8.530;2023-06-22T05:42:34;99239.69;;;20.43
70389;BMP280;58659;49.050;8.530;2023-06-22T05:44:59;99239.09;;;20.48
70389;BMP280;58659;49.050;8.530;2023-06-22T05:47:25;99260.22;;;20.52
70389;BMP280;58659;49.050;8.530;2023-06-22T07:41:16;99768.63;;;29.11
70389;BMP280;58659;49.050;8.530;2023-06-22T07:43:41;99769.22;;;29.54
70389;BMP280;58659;49.050;8.530;2023-06-22T07:46:06;99784.63;;;29.53
70389;BMP280;58659;49.050;8.530;2023-06-22T07:48:32;99778.94;;;29.23
70389;BMP280;58659;49.050;8.530;2023-06-22T07:50:58;99780.88;;;29.17
70389;BMP280;58659;49.050;8.530;2023-06-22T07:53:23;99785.59;;;29.39
70389;BMP280;58659;49.050;8.530;2023-06-22T07:55:51;99776.53;;;29.48
70389;BMP280;58659;49.050;8.530;2023-06-22T07:58:17;99784.88;;;29.50
70389;BMP280;58659;49.050;8.530;2023-06-22T08:00:43;99777.28;;;29.70
70389;BMP280;58659;49.050;8.530;2023-06-22T08:03:09;99774.84;;;30.00
70389;BMP280;58659;49.050;8.530;2023-06-22T08:05:34;99783.97;;;30.60
70389;BMP280;58659;49.050;8.530;2023-06-22T08:08:00;99782.78;;;30.61
70389;BMP280;58659;49.050;8.530;2023-06-22T08:10:25;99784.63;;;30.82
70389;BMP280;58659;49.050;8.530;2023-06-22T08:12:51;99796.41;;;30.79
70389;BMP280;58659;49.050;8.530;2023-06-22T08:15:17;99803.84;;;31.14
70389;BMP280;58659;49.050;8.530;2023-06-22T08:17:44;99790.94;;;31.36
70389;BMP280;58659;49.050;8.530;2023-06-22T08:20:10;99804.78;;;31.57
70389;BMP280;58659;49.050;8.530;2023-06-22T08:22:40;99816.59;;;31.54
70389;BMP280;58659;49.050;8.530;2023-06-22T08:25:06;99809.00;;;31.77
70389;BMP280;58659;49.050;8.530;2023-06-22T08:27:32;99803.91;;;31.73
70389;BMP280;58659;49.050;8.530;2023-06-22T08:29:58;99821.34;;;31.72
70389;BMP280;58659;49.050;8.530;2023-06-22T08:32:25;99817.03;;;31.58
70389;BMP280;58659;49.050;8.530;2023-06-22T08:34:52;99823.81;;;30.94
70389;BMP280;58659;49.050;8.530;2023-06-22T08:37:18;99828.56;;;30.77
70389;BMP280;58659;49.050;8.530;2023-06-22T08:39:43;99856.16;;;30.09
70389;BMP280;58659;49.050;8.530;2023-06-22T08:42:09;99862.44;;;29.51
70389;BMP280;58659;49.050;8.530;2023-06-22T08:44:34;99849.13;;;29.20
70389;BMP280;58659;49.050;8.530;2023-06-22T08:46:59;99837.50;;;29.62
70389;BMP280;58659;49.050;8.530;2023-06-22T08:49:25;99826.97;;;30.24
70389;BMP280;58659;49.050;8.530;2023-06-22T08:51:50;99807.94;;;30.80
70389;BMP280;58659;49.050;8.530;2023-06-22T08:54:19;99777.22;;;30.94
70389;BMP280;58659;49.050;8.530;2023-06-22T08:56:45;99786.31;;;31.31
70389;BMP280;58659;49.050;8.530;2023-06-22T08:59:13;99766.78;;;31.14
70389;BMP280;58659;49.050;8.530;2023-06-22T09:01:39;99761.81;;;31.24
70389;BMP280;58659;49.050;8.530;2023-06-22T09:04:05;99752.97;;;31.23
70389;BMP280;58659;49.050;8.530;2023-06-22T09:06:32;99745.63;;;31.24
70389;BMP280;58659;49.050;8.530;2023-06-22T09:09:02;99743.78;;;31.67
70389;BMP280;58659;49.050;8.530;2023-06-22T09:11:29;99738.03;;;31.17
70389;BMP280;58659;49.050;8.530;2023-06-22T09:13:54;99765.59;;;31.10
70389;BMP280;58659;49.050;8.530;2023-06-22T09:16:20;99764.22;;;30.92
70389;BMP280;58659;49.050;8.530;2023-06-22T09:18:48;99765.72;;;30.88
70389;BMP280;58659;49.050;8.530;2023-06-22T09:21:14;99777.28;;;31.23
70389;BMP280;58659;49.050;8.530;2023-06-22T09:23:41;99776.34;;;31.51
70389;BMP280;58659;49.050;8.530;2023-06-22T09:26:15;99786.22;;;31.72
70389;BMP280;58659;49.050;8.530;2023-06-22T09:28:56;99768.50;;;32.01
70389;BMP280;58659;49.050;8.530;2023-06-22T09:31:21;99770.94;;;32.66
70389;BMP280;58659;49.050;8.530;2023-06-22T09:33:53;99767.81;;;33.12
70389;BMP280;58659;49.050;8.530;2023-06-22T09:36:20;99757.91;;;33.46
70389;BMP280;58659;49.050;8.530;2023-06-22T09:38:54;99767.50;;;33.47
70389;BMP280;58659;49.050;8.530;2023-06-22T09:41:25;99743.75;;;33.66
70389;BMP280;58659;49.050;8.530;2023-06-22T09:43:53;99752.53;;;33.98
70389;BMP280;58659;49.050;8.530;2023-06-22T09:46:19;99743.94;;;34.20
70389;BMP280;58659;49.050;8.530;2023-06-22T09:48:47;99738.13;;;33.90
70389;BMP280;58659;49.050;8.530;2023-06-22T09:51:13;99723.97;;;33.45
70389;BMP280;58659;49.050;8.530;2023-06-22T09:53:38;99708.66;;;33.03
70389;BMP280;58659;49.050;8.530;2023-06-22T09:56:04;99700.31;;;33.01
70389;BMP280;58659;49.050;8.530;2023-06-22T09:58:31;99706.38;;;33.07
70389;BMP280;58659;49.050;8.530;2023-06-22T10:01:08;99682.53;;;33.05
70389;BMP280;58659;49.050;8.530;2023-06-22T10:03:42;99685.16;;;33.11
70389;BMP280;58659;49.050;8.530;2023-06-22T10:06:08;99674.78;;;33.41
70389;BMP280;58659;49.050;8.530;2023-06-22T10:08:34;99659.03;;;33.26
70389;BMP280;58659;49.050;8.530;2023-06-22T10:11:00;99682.19;;;32.96
70389;BMP280;58659;49.050;8.530;2023-06-22T10:13:26;99690.06;;;32.81
70389;BMP280;58659;49.050;8.530;2023-06-22T10:15:51;99675.19;;;32.37
70389;BMP280;58659;49.050;8.530;2023-06-22T10:18:17;99684.41;;;32.28
70389;BMP280;58659;49.050;8.530;2023-06-22T10:20:43;99682.84;;;32.14
70389;BMP280;58659;49.050;8.530;2023-06-22T10:23:09;99700.88;;;32.06
70389;BMP280;58659;49.050;8.530;2023-06-22T10:25:34;99691.50;;;31.65
70389;BMP280;58659;49.050;8.530;2023-06-22T10:28:00;99681.56;;;31.54
70389;BMP280;58659;49.050;8.530;2023-06-22T10:30:25;99682.03;;;31.53
70389;BMP280;58659;49.050;8.530;2023-06-22T10:32:50;99678.19;;;31.72
70389;BMP280;58659;49.050;8.530;2023-06-22T10:35:16;99692.47;;;31.67
70389;BMP280;58659;49.050;8.530;2023-06-22T10:37:42;99690.41;;;31.79
70389;BMP280;58659;49.050;8.530;2023-06-22T10:40:08;99680.56;;;31.81
70389;BMP280;58659;49.050;8.530;2023-06-22T10:42:34;99681.09;;;31.74
70389;BMP280;58659;49.050;8.530;2023-06-22T10:45:00;99674.06;;;31.66
70389;BMP280;58659;49.050;8.530;2023-06-22T10:47:26;99668.34;;;31.75
70389;BMP280;58659;49.050;8.530;2023-06-22T10:50:05;99674.09;;;31.84
70389;BMP280;58659;49.050;8.530;2023-06-22T10:52:31;99673.72;;;31.99
70389;BMP280;58659;49.050;8.530;2023-06-22T10:54:57;99665.09;;;31.76
70389;BMP280;58659;49.050;8.530;2023-06-22T10:57:22;99672.72;;;31.54
70389;BMP280;58659;49.050;8.530;2023-06-22T10:59:47;99657.53;;;31.51
70389;BMP280;58659;49.050;8.530;2023-06-22T11:02:13;99666.91;;;31.44
70389;BMP280;58659;49.050;8.530;2023-06-22T11:04:38;99662.19;;;31.50
70389;BMP280;58659;49.050;8.530;2023-06-22T11:07:04;99670.31;;;31.74
70389;BMP280;58659;49.050;8.530;2023-06-22T11:09:29;99690.81;;;32.25
70389;BMP280;58659;49.050;8.530;2023-06-22T11:12:01;99679.94;;;32.31
70389;BMP280;58659;49.050;8.530;2023-06-22T11:14:26;99677.97;;;32.31
70389;BMP280;58659;49.050;8.530;2023-06-22T11:16:51;99675.91;;;32.37
70389;BMP280;58659;49.050;8.530;2023-06-22T11:19:18;99671.31;;;32.51
70389;BMP280;58659;49.050;8.530;2023-06-22T11:21:44;99673.34;;;32.64
70389;BMP280;58659;49.050;8.530;2023-06-22T11:24:09;99668.59;;;32.70
70389;BMP280;58659;49.050;8.530;2023-06-22T11:26:35;99660.34;;;32.44
70389;BMP280;58659;49.050;8.530;2023-06-22T11:29:01;99660.50;;;32.32
70389;BMP280;58659;49.050;8.530;2023-06-22T11:31:30;99660.56;;;32.46
70389;BMP280;58659;49.050;8.530;2023-06-22T11:33:56;99657.22;;;32.40
70389;BMP280;58659;49.050;8.530;2023-06-22T11:36:21;99645.09;;;32.27
70389;BMP280;58659;49.050;8.530;2023-06-22T11:38:46;99639.22;;;32.42
70389;BMP280;58659;49.050;8.530;2023-06-22T11:41:11;99649.81;;;32.40
70389;BMP280;58659;49.050;8.530;2023-06-22T11:43:37;99645.31;;;32.11
70389;BMP280;58659;49.050;8.530;2023-06-22T11:46:02;99642.22;;;32.01
70389;BMP280;58659;49.050;8.530;2023-06-22T11:48:28;99634.25;;;31.90
70389;BMP280;58659;49.050;8.530;2023-06-22T11:50:53;99641.69;;;31.84
70389;BMP280;58659;49.050;8.530;2023-06-22T11:53:20;99651.91;;;31.73
70389;BMP280;58659;49.050;8.530;2023-06-22T11:55:46;99649.88;;;31.79
70389;BMP280;58659;49.050;8.530;2023-06-22T11:58:11;99654.09;;;31.74
70389;BMP280;58659;49.050;8.530;2023-06-22T12:00:36;99660.22;;;31.75
70389;BMP280;58659;49.050;8.530;2023-06-22T12:03:02;99662.25;;;31.69
70389;BMP280;58659;49.050;8.530;2023-06-22T12:05:27;99667.78;;;31.76
70389;BMP280;58659;49.050;8.530;2023-06-22T12:07:53;99670.06;;;31.96
70389;BMP280;58659;49.050;8.530;2023-06-22T12:10:18;99666.28;;;32.23
70389;BMP280;58659;49.050;8.530;2023-06-22T12:12:43;99677.63;;;33.04
70389;BMP280;58659;49.050;8.530;2023-06-22T12:15:09;99670.59;;;33.79
70389;BMP280;58659;49.050;8.530;2023-06-22T12:17:34;99663.88;;;34.40
70389;BMP280;58659;49.050;8.530;2023-06-22T12:20:00;99664.41;;;34.80
70389;BMP280;58659;49.050;8.530;2023-06-22T12:22:25;99668.44;;;35.14
70389;BMP280;58659;49.050;8.530;2023-06-22T12:24:50;99665.56;;;35.12
70389;BMP280;58659;49.050;8.530;2023-06-22T12:27:17;99669.47;;;35.32
70389;BMP280;58659;49.050;8.530;2023-06-22T12:29:44;99666.94;;;35.34
70389;BMP280;58659;49.050;8.530;2023-06-22T12:32:10;99679.41;;;35.29
70389;BMP280;58659;49.050;8.530;2023-06-22T12:34:38;99680.53;;;34.85
70389;BMP280;58659;49.050;8.530;2023-06-22T12:37:04;99669.84;;;34.80
70389;BMP280;58659;49.050;8.530;2023-06-22T12:39:31;99663.59;;;34.51
70389;BMP280;58659;49.050;8.530;2023-06-22T12:41:59;99675.16;;;34.65
70389;BMP280;58659;49.050;8.530;2023-06-22T12:44:24;99676.03;;;34.88
70389;BMP280;58659;49.050;8.530;2023-06-22T12:46:49;99673.94;;;34.52
70389;BMP280;58659;49.050;8.530;2023-06-22T12:49:15;99677.38;;;34.19
70389;BMP280;58659;49.050;8.530;2023-06-22T12:51:41;99684.78;;;34.19
70389;BMP280;58659;49.050;8.530;2023-06-22T12:54:07;99686.56;;;34.29
70389;BMP280;58659;49.050;8.530;2023-06-22T12:56:33;99673.13;;;34.44
70389;BMP280;58659;49.050;8.530;2023-06-22T12:58:58;99671.78;;;34.17
70389;BMP280;58659;49.050;8.530;2023-06-22T13:01:27;99673.78;;;34.04
70389;BMP280;58659;49.050;8.530;2023-06-22T13:03:52;99677.63;;;34.08
70389;BMP280;58659;49.050;8.530;2023-06-22T13:06:17;99675.50;;;33.81
70389;BMP280;58659;49.050;8.530;2023-06-22T13:08:42;99673.69;;;33.96
70389;BMP280;58659;49.050;8.530;2023-06-22T13:11:08;99668.50;;;34.19
70389;BMP280;58659;49.050;8.530;2023-06-22T13:13:33;99660.22;;;34.37
70389;BMP280;58659;49.050;8.530;2023-06-22T13:15:59;99648.72;;;34.44
70389;BMP280;58659;49.050;8.530;2023-06-22T13:18:24;99656.53;;;34.69
70389;BMP280;58659;49.050;8.530;2023-06-22T13:20:49;99646.38;;;34.90
70389;BMP280;58659;49.050;8.530;2023-06-22T13:23:15;99644.00;;;35.07
70389;BMP280;58659;49.050;8.530;2023-06-22T13:25:40;99636.66;;;35.65
70389;BMP280;58659;49.050;8.530;2023-06-22T13:28:05;99638.25;;;35.53
70389;BMP280;58659;49.050;8.530;2023-06-22T13:30:31;99638.53;;;35.93
70389;BMP280;58659;49.050;8.530;2023-06-22T13:32:57;99635.91;;;36.23
70389;BMP280;58659;49.050;8.530;2023-06-22T13:35:22;99630.22;;;35.99
70389;BMP280;58659;49.050;8.530;2023-06-22T13:37:47;99637.47;;;35.96
70389;BMP280;58659;49.050;8.530;2023-06-22T13:40:14;99632.59;;;35.95
70389;BMP280;58659;49.050;8.530;2023-06-22T13:42:40;99634.47;;;36.30
70389;BMP280;58659;49.050;8.530;2023-06-22T13:45:06;99625.56;;;36.29
70389;BMP280;58659;49.050;8.530;2023-06-22T13:47:31;99619.22;;;36.42
70389;BMP280;58659;49.050;8.530;2023-06-22T13:49:57;99609.91;;;36.82
70389;BMP280;58659;49.050;8.530;2023-06-22T13:52:23;99592.94;;;36.37
70389;BMP280;58659;49.050;8.530;2023-06-22T13:54:48;99594.38;;;36.23
70389;BMP280;58659;49.050;8.530;2023-06-22T13:57:13;99598.22;;;35.54
70389;BMP280;58659;49.050;8.530;2023-06-22T13:59:39;99604.66;;;35.36
70389;BMP280;58659;49.050;8.530;2023-06-22T14:02:04;99600.94;;;35.54
70389;BMP280;58659;49.050;8.530;2023-06-22T14:04:30;99606.38;;;35.61
70389;BMP280;58659;49.050;8.530;2023-06-22T14:06:55;99618.09;;;35.49
70389;BMP280;58659;49.050;8.530;2023-06-22T14:09:21;99615.09;;;35.24
70389;BMP280;58659;49.050;8.530;2023-06-22T14:11:46;99626.88;;;34.29
70389;BMP280;58659;49.050;8.530;2023-06-22T14:14:11;99607.88;;;33.49
70389;BMP280;58659;49.050;8.530;2023-06-22T14:16:37;99602.44;;;32.84
70389;BMP280;58659;49.050;8.530;2023-06-22T14:19:02;99604.91;;;32.37
70389;BMP280;58659;49.050;8.530;2023-06-22T14:21:27;99615.25;;;31.77
70389;BMP280;58659;49.050;8.530;2023-06-22T14:23:53;99615.59;;;31.20
70389;BMP280;58659;49.050;8.530;2023-06-22T14:26:18;99631.91;;;30.74
70389;BMP280;58659;49.050;8.530;2023-06-22T14:28:47;99638.69;;;30.51
70389;BMP280;58659;49.050;8.530;2023-06-22T14:31:18;99623.53;;;30.42
70389;BMP280;58659;49.050;8.530;2023-06-22T14:33:47;99617.72;;;30.32
70389;BMP280;58659;49.050;8.530;2023-06-22T14:36:13;99617.88;;;30.40
70389;BMP280;58659;49.050;8.530;2023-06-22T14:38:38;99617.69;;;30.38
70389;BMP280;58659;49.050;8.530;2023-06-22T14:41:04;99601.75;;;30.34
70389;BMP280;58659;49.050;8.530;2023-06-22T14:43:29;99588.03;;;30.38
70389;BMP280;58659;49.050;8.530;2023-06-22T14:45:55;99568.34;;;30.49
70389;BMP280;58659;49.050;8.530;2023-06-22T14:48:20;99554.78;;;30.60
70389;BMP280;58659;49.050;8.530;2023-06-22T14:50:45;99553.69;;;31.03
70389;BMP280;58659;49.050;8.530;2023-06-22T14:53:11;99529.75;;;31.18
70389;BMP280;58659;49.050;8.530;2023-06-22T14:55:36;99529.66;;;31.48
70389;BMP280;58659;49.050;8.530;2023-06-22T14:58:01;99527.88;;;31.93
70389;BMP280;58659;49.050;8.530;2023-06-22T15:00:26;99534.63;;;32.18
70389;BMP280;58659;49.050;8.530;2023-06-22T15:02:52;99523.81;;;32.18
70389;BMP280;58659;49.050;8.530;2023-06-22T15:05:17;99522.34;;;32.17
70389;BMP280;58659;49.050;8.530;2023-06-22T15:07:43;99515.94;;;32.20
70389;BMP280;58659;49.050;8.530;2023-06-22T15:10:09;99510.44;;;32.26
70389;BMP280;58659;49.050;8.530;2023-06-22T15:12:34;99506.75;;;32.55
70389;BMP280;58659;49.050;8.530;2023-06-22T15:14:59;99494.91;;;32.97
70389;BMP280;58659;49.050;8.530;2023-06-22T15:17:25;99492.28;;;33.31
70389;BMP280;58659;49.050;8.530;2023-06-22T15:19:55;99502.09;;;33.68
70389;BMP280;58659;49.050;8.530;2023-06-22T15:24:46;99510.44;;;33.70
70389;BMP280;58659;49.050;8.530;2023-06-22T15:27:13;99500.63;;;33.67
70389;BMP280;58659;49.050;8.530;2023-06-22T15:29:39;99497.88;;;33.80
70389;BMP280;58659;49.050;8.530;2023-06-22T15:32:05;99507.47;;;34.01
70389;BMP280;58659;49.050;8.530;2023-06-22T15:34:31;99530.16;;;33.91
70389;BMP280;58659;49.050;8.530;2023-06-22T15:36:56;99528.69;;;33.56
70389;BMP280;58659;49.050;8.530;2023-06-22T15:39:21;99522.56;;;33.56
70389;BMP280;58659;49.050;8.530;2023-06-22T15:41:48;99524.47;;;33.34
70389;BMP280;58659;49.050;8.530;2023-06-22T15:44:13;99526.06;;;32.91
70389;BMP280;58659;49.050;8.530;2023-06-22T15:46:40;99520.13;;;33.05
70389;BMP280;58659;49.050;8.530;2023-06-22T15:49:05;99522.25;;;33.46
70389;BMP280;58659;49.050;8.530;2023-06-22T15:51:30;99529.09;;;33.60
70389;BMP280;58659;49.050;8.530;2023-06-22T15:53:56;99509.88;;;33.37
70389;BMP280;58659;49.050;8.530;2023-06-22T15:56:21;99503.97;;;33.13
70389;BMP280;58659;49.050;8.530;2023-06-22T15:58:48;99508.44;;;32.97
70389;BMP280;58659;49.050;8.530;2023-06-22T16:01:13;99501.28;;;33.00
70389;BMP280;58659;49.050;8.530;2023-06-22T16:03:39;99503.16;;;33.05
70389;BMP280;58659;49.050;8.530;2023-06-22T16:06:06;99491.72;;;32.86
70389;BMP280;58659;49.050;8.530;2023-06-22T16:08:32;99485.41;;;32.38
70389;BMP280;58659;49.050;8.530;2023-06-22T16:10:59;99484.78;;;32.46
70389;BMP280;58659;49.050;8.530;2023-06-22T16:13:25;99488.97;;;32.60
70389;BMP280;58659;49.050;8.530;2023-06-22T16:15:50;99474.81;;;32.54
70389;BMP280;58659;49.050;8.530;2023-06-22T16:18:15;99475.84;;;32.51
70389;BMP280;58659;49.050;8.530;2023-06-22T16:20:41;99454.47;;;32.53
70389;BMP280;58659;49.050;8.530;2023-06-22T16:23:06;99453.81;;;32.60